createdAt,value
2022-11-19T00:02:16.371Z,8.70
2022-11-19T00:05:01.306Z,8.74
2022-11-19T00:07:46.494Z,8.72
2022-11-19T00:10:34.518Z,8.74
2022-11-19T00:13:19.522Z,8.75
2022-11-19T00:16:10.414Z,8.80
2022-11-19T00:18:55.396Z,8.78
2022-11-19T00:21:40.828Z,8.74
2022-11-19T00:24:29.057Z,8.71
2022-11-19T00:27:14.050Z,8.74
2022-11-19T00:29:59.085Z,8.75
2022-11-19T00:32:44.199Z,8.74
2022-11-19T00:35:29.400Z,8.76
2022-11-19T00:38:14.321Z,8.75
2022-11-19T00:40:59.555Z,8.79
2022-11-19T00:43:47.962Z,8.80
2022-11-19T00:46:33.130Z,8.82
2022-11-19T00:49:18.681Z,8.87
2022-11-19T00:52:04.207Z,8.83
2022-11-19T00:54:49.215Z,8.82
2022-11-19T00:57:34.172Z,8.82
2022-11-19T01:00:19.179Z,8.81
2022-11-19T01:03:04.792Z,8.80
2022-11-19T01:05:49.974Z,8.80
2022-11-19T01:08:35.563Z,8.72
2022-11-19T01:11:23.890Z,8.77
2022-11-19T01:14:09.168Z,8.77
2022-11-19T01:16:54.574Z,8.74
2022-11-19T01:19:39.786Z,8.62
2022-11-19T01:22:25.109Z,8.72
2022-11-19T01:25:10.175Z,8.72
2022-11-19T01:27:55.923Z,8.59
2022-11-19T01:30:42.324Z,8.65
2022-11-19T01:33:28.075Z,8.66
2022-11-19T01:36:16.360Z,8.53
2022-11-19T01:39:01.519Z,8.57
2022-11-19T01:41:46.671Z,8.48
2022-11-19T01:45:01.082Z,8.52
2022-11-19T01:47:46.430Z,8.41
2022-11-19T01:50:33.745Z,8.43
2022-11-19T01:53:21.048Z,8.51
2022-11-19T01:56:07.841Z,8.34
2022-11-19T01:58:58.891Z,8.55
2022-11-19T02:01:44.918Z,8.55
2022-11-19T02:04:31.138Z,8.42
2022-11-19T02:07:18.837Z,8.50
2022-11-19T02:10:05.968Z,8.45
2022-11-19T02:12:50.841Z,8.47
2022-11-19T02:15:51.953Z,8.40
2022-11-19T02:18:49.023Z,8.39
2022-11-19T02:21:42.430Z,8.28
2022-11-19T02:24:37.262Z,8.35
2022-11-19T02:27:43.629Z,8.25
2022-11-19T02:30:38.491Z,8.26
2022-11-19T02:33:34.652Z,8.27
2022-11-19T02:36:28.453Z,8.25
2022-11-19T02:39:25.010Z,8.23
2022-11-19T02:42:33.364Z,8.15
2022-11-19T02:45:34.190Z,8.13
2022-11-19T02:48:31.391Z,8.09
2022-11-19T02:51:17.048Z,8.05
2022-11-19T02:54:04.857Z,7.90
2022-11-19T02:56:55.293Z,8.00
2022-11-19T03:00:00.258Z,8.00
2022-11-19T03:03:14.573Z,7.94
2022-11-19T03:06:04.943Z,7.82
2022-11-19T03:08:49.979Z,7.80
2022-11-19T03:11:35.306Z,7.77
2022-11-19T03:14:44.687Z,7.78
2022-11-19T03:17:42.303Z,7.77
2022-11-19T03:20:34.650Z,7.72
2022-11-19T03:23:29.344Z,7.66
2022-11-19T03:26:26.060Z,7.60
2022-11-19T03:29:13.993Z,7.57
2022-11-19T03:32:08.164Z,7.57
2022-11-19T03:34:59.457Z,7.57
2022-11-19T03:37:50.595Z,7.46
2022-11-19T03:40:36.867Z,7.39
2022-11-19T03:43:25.840Z,7.33
2022-11-19T03:46:16.130Z,7.28
2022-11-19T03:49:03.004Z,7.20
2022-11-19T03:52:01.669Z,7.13
2022-11-19T03:54:47.088Z,7.03
2022-11-19T03:57:32.242Z,7.00
2022-11-19T04:00:17.739Z,6.96
2022-11-19T04:03:03.939Z,6.93
2022-11-19T04:05:48.910Z,6.79
2022-11-19T04:08:33.905Z,6.82
2022-11-19T04:14:02.975Z,6.72
2022-11-19T04:16:47.910Z,6.72
2022-11-19T04:19:32.871Z,6.50
2022-11-19T04:22:17.881Z,6.56
2022-11-19T04:25:03.248Z,6.52
2022-11-19T04:27:48.573Z,6.62
2022-11-19T04:30:33.795Z,6.67
2022-11-19T04:33:18.928Z,6.71
2022-11-19T04:36:04.501Z,6.65
2022-11-19T04:38:49.620Z,6.65
2022-11-19T04:41:35.985Z,6.67
2022-11-19T04:44:21.323Z,6.67
2022-11-19T04:47:06.670Z,6.71
2022-11-19T04:49:51.874Z,6.59
2022-11-19T04:52:40.837Z,6.71
2022-11-19T04:55:26.864Z,6.67
2022-11-19T04:58:11.927Z,6.67
2022-11-19T05:00:57.105Z,6.65
2022-11-19T05:03:42.281Z,6.69
2022-11-19T05:06:27.222Z,6.69
2022-11-19T05:09:12.171Z,6.69
2022-11-19T05:11:57.005Z,6.69
2022-11-19T05:14:42.253Z,6.69
2022-11-19T05:17:27.548Z,6.69
2022-11-19T05:20:12.455Z,6.59
2022-11-19T05:22:57.741Z,6.72
2022-11-19T05:25:43.399Z,6.66
2022-11-19T05:28:38.126Z,6.80
2022-11-19T05:31:23.808Z,6.81
2022-11-19T05:34:08.876Z,6.83
2022-11-19T05:36:53.634Z,6.82
2022-11-19T05:39:38.409Z,6.73
2022-11-19T05:42:23.331Z,6.87
2022-11-19T05:45:09.065Z,6.77
2022-11-19T05:47:55.146Z,6.91
2022-11-19T05:50:42.347Z,6.90
2022-11-19T05:53:27.794Z,6.87
2022-11-19T05:56:12.941Z,6.97
2022-11-19T05:58:58.010Z,7.01
2022-11-19T06:01:42.984Z,7.04
2022-11-19T06:04:28.094Z,7.02
2022-11-19T06:07:13.472Z,7.05
2022-11-19T06:09:58.523Z,7.09
2022-11-19T06:12:45.915Z,7.02
2022-11-19T06:15:31.204Z,7.08
2022-11-19T06:18:16.077Z,7.06
2022-11-19T06:21:01.266Z,7.14
2022-11-19T06:23:46.198Z,7.10
2022-11-19T06:26:31.092Z,7.19
2022-11-19T06:29:17.934Z,7.16
2022-11-19T06:32:03.557Z,7.13
2022-11-19T06:34:48.860Z,7.15
2022-11-19T06:37:34.148Z,7.15
2022-11-19T06:40:19.451Z,7.19
2022-11-19T06:43:05.115Z,7.17
2022-11-19T06:45:50.023Z,7.14
2022-11-19T06:48:35.423Z,7.16
2022-11-19T06:51:20.526Z,7.15
2022-11-19T06:54:05.630Z,7.21
2022-11-19T06:56:50.717Z,7.16
2022-11-19T06:59:35.921Z,7.03
2022-11-19T07:02:21.748Z,7.20
2022-11-19T07:05:07.801Z,7.10
2022-11-19T07:07:53.295Z,7.29
2022-11-19T07:10:38.395Z,7.30
2022-11-19T07:13:23.453Z,7.35
2022-11-19T07:16:08.720Z,7.35
2022-11-19T07:18:54.280Z,7.40
2022-11-19T07:21:39.169Z,7.27
2022-11-19T07:24:24.173Z,7.42
2022-11-19T07:27:09.243Z,7.44
2022-11-19T07:29:54.129Z,7.46
2022-11-19T07:32:39.769Z,7.46
2022-11-19T07:35:24.817Z,7.54
2022-11-19T07:38:10.072Z,7.54
2022-11-19T07:40:56.264Z,7.54
2022-11-19T07:43:41.190Z,7.53
2022-11-19T07:46:26.312Z,7.64
2022-11-19T07:49:11.874Z,7.65
2022-11-19T07:51:56.823Z,7.58
2022-11-19T07:54:41.953Z,7.59
2022-11-19T07:57:30.260Z,7.70
2022-11-19T08:00:15.781Z,7.76
2022-11-19T08:03:02.501Z,7.79
2022-11-19T08:05:47.765Z,7.78
2022-11-19T08:08:33.287Z,7.75
2022-11-19T08:11:19.301Z,7.71
2022-11-19T08:14:04.473Z,7.82
2022-11-19T08:17:08.173Z,7.86
2022-11-19T08:19:53.281Z,7.89
2022-11-19T08:22:40.605Z,7.91
2022-11-19T08:25:25.645Z,7.97
2022-11-19T08:28:11.549Z,7.98
2022-11-19T08:30:57.569Z,7.97
2022-11-19T08:33:42.452Z,7.93
2022-11-19T08:36:27.807Z,8.00
2022-11-19T08:39:12.944Z,8.35
2022-11-19T08:42:16.733Z,8.19
2022-11-19T08:45:01.905Z,8.16
2022-11-19T08:47:46.847Z,8.10
2022-11-19T08:50:33.077Z,8.21
2022-11-19T08:53:17.996Z,8.16
2022-11-19T08:56:03.327Z,8.12
2022-11-19T08:58:48.913Z,8.29
2022-11-19T09:01:33.833Z,8.30
2022-11-19T09:04:19.394Z,8.49
2022-11-19T09:07:04.904Z,8.53
2022-11-19T09:09:49.876Z,8.58
2022-11-19T09:12:34.868Z,8.57
2022-11-19T09:15:20.303Z,8.59
2022-11-19T09:18:05.430Z,8.65
2022-11-19T09:20:57.404Z,8.63
2022-11-19T09:23:42.673Z,8.55
2022-11-19T09:26:27.911Z,8.73
2022-11-19T09:29:13.064Z,8.77
2022-11-19T09:31:58.086Z,8.77
2022-11-19T09:34:43.482Z,8.75
2022-11-19T09:37:31.459Z,8.93
2022-11-19T09:40:20.548Z,8.86
2022-11-19T09:43:15.567Z,8.96
2022-11-19T09:46:23.424Z,9.05
2022-11-19T09:49:25.665Z,9.17
2022-11-19T09:52:16.824Z,9.28
2022-11-19T09:55:03.413Z,9.37
2022-11-19T09:57:57.596Z,9.42
2022-11-19T10:00:44.615Z,9.42
2022-11-19T10:03:33.408Z,9.47
2022-11-19T10:06:56.478Z,9.98
2022-11-19T10:09:48.473Z,10.25
2022-11-19T10:12:44.618Z,10.02
2022-11-19T10:15:51.704Z,9.78
2022-11-19T10:18:58.483Z,9.75
2022-11-19T10:21:55.757Z,9.84
2022-11-19T10:24:47.436Z,9.81
2022-11-19T10:27:42.767Z,9.88
2022-11-19T10:30:30.878Z,9.86
2022-11-19T10:33:27.460Z,9.84
2022-11-19T10:36:44.020Z,9.86
2022-11-19T10:39:38.638Z,9.69
2022-11-19T10:42:31.788Z,9.84
2022-11-19T10:45:23.743Z,9.82
2022-11-19T10:48:25.433Z,9.88
2022-11-19T10:51:17.690Z,9.92
2022-11-19T10:54:07.247Z,10.00
2022-11-19T10:56:54.202Z,10.09
2022-11-19T10:59:40.704Z,10.02
2022-11-19T11:02:33.268Z,10.21
2022-11-19T11:05:19.577Z,10.26
2022-11-19T11:08:11.273Z,10.26
2022-11-19T11:10:56.956Z,10.29
2022-11-19T11:14:00.490Z,10.35
2022-11-19T11:16:47.705Z,10.41
2022-11-19T11:19:33.992Z,10.30
2022-11-19T11:22:19.808Z,10.48
2022-11-19T11:25:18.726Z,10.29
2022-11-19T11:28:12.875Z,10.37
2022-11-19T11:30:59.224Z,10.29
2022-11-19T11:33:57.925Z,10.40
2022-11-19T11:36:44.183Z,10.43
2022-11-19T11:39:36.593Z,10.36
2022-11-19T11:42:26.330Z,10.48
2022-11-19T11:45:22.858Z,10.54
2022-11-19T11:48:19.377Z,10.64
2022-11-19T11:51:04.601Z,10.64
2022-11-19T11:54:04.342Z,10.59
2022-11-19T11:56:49.417Z,10.74
2022-11-19T11:59:35.340Z,10.69
2022-11-19T12:02:40.785Z,10.77
2022-11-19T12:05:29.059Z,10.81
2022-11-19T12:08:30.476Z,10.76
2022-11-19T12:11:55.998Z,10.85
2022-11-19T12:14:58.890Z,10.85
2022-11-19T12:18:05.779Z,10.80
2022-11-19T12:21:01.023Z,11.03
2022-11-19T12:23:59.961Z,11.05
2022-11-19T12:27:00.792Z,10.90
2022-11-19T12:29:57.822Z,10.92
2022-11-19T12:32:52.178Z,10.96
2022-11-19T12:35:53.021Z,10.92
2022-11-19T12:38:56.363Z,10.93
2022-11-19T12:42:25.440Z,10.91
2022-11-19T12:45:23.721Z,10.88
2022-11-19T12:48:43.753Z,10.88
2022-11-19T12:51:52.240Z,10.92
2022-11-19T12:55:04.351Z,10.72
2022-11-19T12:58:08.111Z,10.77
2022-11-19T13:00:58.781Z,10.76
2022-11-19T13:03:49.651Z,10.80
2022-11-19T13:07:03.484Z,10.76
2022-11-19T13:09:54.528Z,10.72
2022-11-19T13:12:46.068Z,10.67
2022-11-19T13:15:45.801Z,10.55
2022-11-19T13:18:34.719Z,10.57
2022-11-19T13:21:43.327Z,10.55
2022-11-19T13:24:51.417Z,10.57
2022-11-19T13:27:37.159Z,10.46
2022-11-19T13:30:26.664Z,10.55
2022-11-19T13:33:32.115Z,10.41
2022-11-19T13:36:29.316Z,10.48
2022-11-19T13:39:22.965Z,10.38
2022-11-19T13:42:29.127Z,10.48
2022-11-19T13:45:18.182Z,10.47
2022-11-19T13:48:14.363Z,10.37
2022-11-19T13:51:02.732Z,10.32
2022-11-19T13:53:48.300Z,10.46
2022-11-19T13:56:44.090Z,10.43
2022-11-19T13:59:40.284Z,10.40
2022-11-19T14:02:31.330Z,10.44
2022-11-19T14:05:46.931Z,10.43
2022-11-19T14:08:39.089Z,10.43
2022-11-19T14:12:02.670Z,10.36
2022-11-19T14:15:15.792Z,10.30
2022-11-19T14:18:48.981Z,10.32
2022-11-19T14:22:12.404Z,10.32
2022-11-19T14:25:16.963Z,10.25
2022-11-19T14:28:40.301Z,10.22
2022-11-19T14:31:25.705Z,10.24
2022-11-19T14:34:29.370Z,10.28
2022-11-19T14:37:22.972Z,10.32
2022-11-19T14:40:16.936Z,10.19
2022-11-19T14:43:20.830Z,10.21
2022-11-19T14:46:18.751Z,10.24
2022-11-19T14:49:07.050Z,10.23
2022-11-19T14:51:57.233Z,10.16
2022-11-19T14:54:45.861Z,10.28
2022-11-19T14:57:39.370Z,10.29
2022-11-19T15:00:40.689Z,10.26
2022-11-19T15:03:27.751Z,10.28
2022-11-19T15:06:17.598Z,10.18
2022-11-19T15:09:02.598Z,10.30
2022-11-19T15:12:07.787Z,10.33
2022-11-19T15:15:04.891Z,10.31
2022-11-19T15:18:04.967Z,10.29
2022-11-19T15:21:12.053Z,10.16
2022-11-19T15:24:19.033Z,10.08
2022-11-19T15:27:46.904Z,9.99
2022-11-19T15:30:40.580Z,9.84
2022-11-19T15:33:44.900Z,9.87
2022-11-19T15:36:33.606Z,9.83
2022-11-19T15:39:29.064Z,9.61
2022-11-19T15:42:19.395Z,9.61
2022-11-19T15:45:12.754Z,9.54
2022-11-19T15:48:13.050Z,9.53
2022-11-19T15:50:58.372Z,9.45
2022-11-19T15:54:04.312Z,9.40
2022-11-19T15:56:50.826Z,9.31
2022-11-19T15:59:38.308Z,9.25
2022-11-19T16:02:38.625Z,9.22
2022-11-19T16:05:26.891Z,9.18
2022-11-19T16:08:14.647Z,9.12
2022-11-19T16:11:20.760Z,8.85
2022-11-19T16:14:41.773Z,8.95
2022-11-19T16:17:42.994Z,8.77
2022-11-19T16:20:29.003Z,8.82
2022-11-19T16:23:25.221Z,8.76
2022-11-19T16:26:10.279Z,8.76
2022-11-19T16:28:55.694Z,8.75
2022-11-19T16:31:41.025Z,8.69
2022-11-19T16:34:31.324Z,8.67
2022-11-19T16:37:21.977Z,8.65
2022-11-19T16:40:14.470Z,8.62
2022-11-19T16:43:00.837Z,8.59
2022-11-19T16:45:46.943Z,8.53
2022-11-19T16:48:50.414Z,8.57
2022-11-19T16:51:41.225Z,8.55
2022-11-19T16:54:42.338Z,8.44
2022-11-19T16:57:29.674Z,8.50
2022-11-19T17:00:20.889Z,8.47
2022-11-19T17:03:30.930Z,8.47
2022-11-19T17:06:25.562Z,8.51
2022-11-19T17:09:29.813Z,8.39
2022-11-19T17:12:29.212Z,8.49
2022-11-19T17:15:38.638Z,8.48
2022-11-19T17:18:33.087Z,8.49
2022-11-19T17:21:30.319Z,8.50
2022-11-19T17:24:17.982Z,8.48
2022-11-19T17:27:04.528Z,8.43
2022-11-19T17:29:50.070Z,8.41
2022-11-19T17:32:41.523Z,8.42
2022-11-19T17:35:40.058Z,8.37
2022-11-19T17:38:27.702Z,8.34
2022-11-19T17:41:16.396Z,8.41
2022-11-19T17:44:20.295Z,8.42
2022-11-19T17:47:22.225Z,8.43
2022-11-19T17:50:08.633Z,8.34
2022-11-19T17:52:53.861Z,8.27
2022-11-19T17:55:41.644Z,8.17
2022-11-19T17:58:26.853Z,8.30
2022-11-19T18:01:13.064Z,8.25
2022-11-19T18:03:59.165Z,8.32
2022-11-19T18:06:44.450Z,8.35
2022-11-19T18:09:34.636Z,8.31
2022-11-19T18:12:20.311Z,8.31
2022-11-19T18:15:06.259Z,8.30
2022-11-19T18:17:51.462Z,8.19
2022-11-19T18:20:37.384Z,8.29
2022-11-19T18:23:22.561Z,8.25
2022-11-19T18:26:12.136Z,8.24
2022-11-19T18:28:57.664Z,8.13
2022-11-19T18:31:45.889Z,8.03
2022-11-19T18:34:30.762Z,7.99
2022-11-19T18:37:15.616Z,8.01
2022-11-19T18:40:00.655Z,7.98
2022-11-19T18:43:04.361Z,7.97
2022-11-19T18:45:49.535Z,7.95
2022-11-19T18:48:34.435Z,7.83
2022-11-19T18:51:19.932Z,7.92
2022-11-19T18:54:05.149Z,7.89
2022-11-19T18:56:50.386Z,7.87
2022-11-19T18:59:35.757Z,7.83
2022-11-19T19:02:20.902Z,7.79
2022-11-19T19:05:06.538Z,7.71
2022-11-19T19:07:51.580Z,7.66
2022-11-19T19:10:37.283Z,7.54
2022-11-19T19:13:22.574Z,7.46
2022-11-19T19:16:07.444Z,7.38
2022-11-19T19:18:52.852Z,7.22
2022-11-19T19:21:37.985Z,7.27
2022-11-19T19:24:24.351Z,7.21
2022-11-19T19:27:09.837Z,7.19
2022-11-19T19:29:54.678Z,7.07
2022-11-19T19:32:39.774Z,7.13
2022-11-19T19:35:24.937Z,7.09
2022-11-19T19:38:10.439Z,7.03
2022-11-19T19:41:03.941Z,7.03
2022-11-19T19:43:49.990Z,7.02
2022-11-19T19:46:35.735Z,6.95
2022-11-19T19:49:21.025Z,6.88
2022-11-19T19:52:07.365Z,6.81
2022-11-19T19:54:52.445Z,6.70
2022-11-19T19:57:37.453Z,6.74
2022-11-19T20:00:23.686Z,6.76
2022-11-19T20:03:08.956Z,6.72
2022-11-19T20:05:53.876Z,6.67
2022-11-19T20:08:39.293Z,6.61
2022-11-19T20:11:25.835Z,6.55
2022-11-19T20:14:10.995Z,6.50
2022-11-19T20:16:56.170Z,6.41
2022-11-19T20:19:41.331Z,6.52
2022-11-19T20:22:26.231Z,6.48
2022-11-19T20:25:11.623Z,6.39
2022-11-19T20:27:56.524Z,6.32
2022-11-19T20:30:41.696Z,6.27
2022-11-19T20:33:26.785Z,6.19
2022-11-19T20:36:14.198Z,6.03
2022-11-19T20:38:59.571Z,6.10
2022-11-19T20:42:03.184Z,6.09
2022-11-19T20:44:48.540Z,5.99
2022-11-19T20:47:33.751Z,5.99
2022-11-19T20:50:18.890Z,6.00
2022-11-19T20:53:04.240Z,5.96
2022-11-19T20:56:04.484Z,5.93
2022-11-19T20:58:50.350Z,5.90
2022-11-19T21:01:36.339Z,5.77
2022-11-19T21:04:22.217Z,5.83
2022-11-19T21:07:07.316Z,5.80
2022-11-19T21:09:52.303Z,5.73
2022-11-19T21:12:57.308Z,5.71
2022-11-19T21:15:42.332Z,5.58
2022-11-19T21:18:30.123Z,5.57
2022-11-19T21:21:19.869Z,5.70
2022-11-19T21:24:05.853Z,5.69
2022-11-19T21:26:50.969Z,5.55
2022-11-19T21:29:38.172Z,5.58
2022-11-19T21:32:22.998Z,5.53
2022-11-19T21:35:07.864Z,5.48
2022-11-19T21:37:53.274Z,5.42
2022-11-19T21:40:39.607Z,5.31
2022-11-19T21:43:26.010Z,5.36
2022-11-19T21:46:10.866Z,5.30
2022-11-19T21:48:55.954Z,5.28
2022-11-19T21:51:41.372Z,5.22
2022-11-19T21:54:26.575Z,5.20
2022-11-19T21:57:11.454Z,5.04
2022-11-19T21:59:56.393Z,5.13
2022-11-19T22:02:41.406Z,5.13
2022-11-19T22:05:27.179Z,5.14
2022-11-19T22:08:12.065Z,5.12
2022-11-19T22:10:57.412Z,5.08
2022-11-19T22:13:42.531Z,4.98
2022-11-19T22:16:28.650Z,4.90
2022-11-19T22:19:14.266Z,4.88
2022-11-19T22:21:59.593Z,4.88
2022-11-19T22:24:44.788Z,4.83
2022-11-19T22:27:29.576Z,4.77
2022-11-19T22:30:14.961Z,4.64
2022-11-19T22:33:00.056Z,4.56
2022-11-19T22:35:44.933Z,4.64
2022-11-19T22:38:30.161Z,4.64
2022-11-19T22:41:17.607Z,4.64
2022-11-19T22:44:02.586Z,4.61
2022-11-19T22:46:47.783Z,4.46
2022-11-19T22:49:33.092Z,4.53
2022-11-19T22:52:18.024Z,4.48
2022-11-19T22:55:03.517Z,4.52
2022-11-19T22:57:48.863Z,4.49
2022-11-19T23:00:48.911Z,4.46
2022-11-19T23:03:34.107Z,4.40
2022-11-19T23:06:19.606Z,4.25
2022-11-19T23:09:06.317Z,4.21
2022-11-19T23:12:10.163Z,4.32
2022-11-19T23:14:55.410Z,4.30
2022-11-19T23:17:44.608Z,4.32
2022-11-19T23:20:31.195Z,4.31
2022-11-19T23:23:16.312Z,4.31
2022-11-19T23:26:03.756Z,4.31
2022-11-19T23:28:49.591Z,4.17
2022-11-19T23:31:37.886Z,4.14
2022-11-19T23:34:22.994Z,4.31
2022-11-19T23:37:08.295Z,4.17
2022-11-19T23:39:53.229Z,4.17
2022-11-19T23:42:38.261Z,4.24
2022-11-19T23:45:23.287Z,4.28
2022-11-19T23:48:08.687Z,4.19
2022-11-19T23:50:53.770Z,4.12
2022-11-19T23:53:39.445Z,4.19
2022-11-19T23:56:25.638Z,4.15
2022-11-19T23:59:10.534Z,4.11
